Data for 04/17/2007

Time Sea-Level Adjusted Pressure Absolute Pressure Temperature Relative Humidity Dew Point   
(mb) (inHg) (mb) (inHg) (C) (F) (%) (C) (F)
00:05 1015 29.97 844 24.92 8.7 47.6 67 3 37.4
00:10 1015 29.97 844 24.92 8.6 47.5 68 3 37.4
00:15 1015 29.97 844 24.92 8.7 47.6 67 2.9 37.2
00:20 1015 29.97 844 24.92 8.7 47.6 67 2.9 37.3
00:25 1015 29.97 844 24.92 8.6 47.5 67 2.9 37.2
00:30 1015 29.97 844 24.92 8.5 47.3 68 2.9 37.2
00:35 1015 29.97 844 24.92 8.4 47.2 67 2.8 37
00:40 1015 29.97 844 24.92 8.6 47.5 67 2.8 37
00:45 1015 29.97 844 24.92 8.6 47.4 67 2.8 37
00:50 1015 29.97 844 24.92 8.6 47.5 67 2.8 37.1
00:55 1015 29.97 844 24.92 8.5 47.4 67 2.8 37
01:00 1015 29.97 844 24.92 8.4 47.2 67 2.8 37
01:05 1015 29.97 844 24.92 8.4 47.1 68 2.8 37
01:10 1015 29.97 844 24.92 8.5 47.2 67 2.7 36.8
01:15 1015 29.97 844 24.92 8.3 47 68 2.8 37
01:20 1015 29.97 844 24.92 8.1 46.7 68 2.6 36.7
01:25 1015 29.97 844 24.92 8.1 46.6 68 2.6 36.7
01:30 1015 29.97 844 24.92 8 46.4 69 2.6 36.7
01:35 1015 29.97 844 24.92 7.9 46.2 69 2.6 36.6
01:40 1015 29.97 844 24.92 7.8 46.1 69 2.5 36.5
01:45 1015 29.97 844 24.92 7.9 46.2 68 2.4 36.4
01:50 1015 29.97 844 24.92 7.8 46.1 68 2.4 36.2
01:55 1015 29.97 844 24.92 7.8 46 68 2.2 36
02:00 1015 29.97 844 24.92 7.8 46 68 2.2 35.9
02:05 1015 29.97 844 24.92 7.6 45.8 65 1.5 34.6
02:10 1015 29.97 844 24.92 7.5 45.6 66 1.6 34.8
02:15 1015 29.97 844 24.92 7.5 45.5 61 0.6 33.1
02:20 1015 29.97 844 24.92 7.1 44.7 65 1 33.8
02:25 1015 29.97 844 24.92 7.3 45.1 64 0.8 33.5
02:30 1015 29.97 844 24.92 7.1 44.8 65 0.9 33.7
02:35 1015 29.97 844 24.92 6.9 44.4 67 1.1 34.1
02:40 1014 29.94 844 24.92 6.6 43.9 67 1.1 33.9
02:45 1014 29.94 844 24.92 6.6 43.8 70 1.6 34.8
02:50 1014 29.94 844 24.92 6.6 43.9 70 1.5 34.7
02:55 1014 29.94 844 24.92 6.8 44.2 68 1.4 34.5
03:00 1014 29.94 844 24.92 6.8 44.2 67 1 33.8
03:05 1014 29.94 844 24.92 6.7 44 68 1.3 34.3
03:10 1014 29.94 844 24.92 6.5 43.6 70 1.5 34.6
03:15 1014 29.94 844 24.92 6.6 44 69 1.4 34.4
03:20 1014 29.94 844 24.92 6.5 43.8 69 1.3 34.3
03:25 1014 29.94 844 24.92 6.4 43.5 67 0.8 33.5
03:30 1014 29.94 844 24.92 6.1 43 67 0.5 32.9
03:35 1014 29.94 844 24.92 6 42.9 66 0.1 32.2
03:40 1014 29.94 844 24.92 6.1 42.9 65 -0 31.9
03:45 1014 29.94 844 24.92 6.3 43.4 64 -0 31.9
03:50 1015 29.97 844 24.92 6.4 43.5 60 -0.7 30.8
03:55 1015 29.97 844 24.92 6.3 43.4 62 -0.3 31.4
04:00 1015 29.97 844 24.92 6.3 43.4 62 -0.4 31.2
04:05 1014 29.94 844 24.92 6.3 43.4 61 -0.5 31
04:10 1015 29.97 844 24.92 5.7 42.3 62 -1 30.2
04:15 1015 29.97 844 24.92 5.3 41.5 63 -1.2 29.9
04:20 1015 29.97 844 24.92 6.2 43.2 58 -1.4 29.5
04:25 1014 29.94 844 24.92 6.4 43.6 57 -1.4 29.5
04:30 1014 29.94 844 24.92 6.6 43.9 58 -1.2 29.9
04:35 1014 29.94 844 24.92 5.9 42.6 60 -1.4 29.5
04:40 1014 29.94 844 24.92 6.1 43 59 -1.3 29.7
04:45 1014 29.94 843 24.89 6.1 43 59 -1.3 29.6
04:50 1014 29.94 843 24.89 5.8 42.4 61 -1.1 30.1
04:55 1014 29.94 843 24.89 5.4 41.7 63 -1.1 30.1
05:00 1014 29.94 843 24.89 5.3 41.5 64 -0.9 30.3
05:05 1014 29.94 843 24.89 5.3 41.5 63 -1.3 29.7
05:10 1014 29.94 843 24.89 5.3 41.5 62 -1.4 29.5
05:15 1014 29.94 843 24.89 5.4 41.7 62 -1.4 29.5
05:20 1014 29.94 843 24.89 5.2 41.4 63 -1.2 29.9
05:25 1014 29.94 843 24.89 5.2 41.3 64 -1.1 30.1
05:30 1014 29.94 843 24.89 5 41.1 66 -0.8 30.5
05:35 1014 29.94 843 24.89 4.9 40.8 68 -0.5 31.1
05:40 1014 29.94 843 24.89 4.6 40.3 70 -0.4 31.4
05:45 1014 29.94 843 24.89 4.5 40.1 69 -0.6 30.9
05:50 1014 29.94 843 24.89 4.4 40 69 -0.8 30.6
05:55 1014 29.94 843 24.89 4.3 39.8 69 -0.8 30.6
06:00 1014 29.94 843 24.89 4.5 40.1 68 -1 30.2
06:05 1014 29.94 843 24.89 4.5 40.1 67 -1 30.2
06:10 1014 29.94 843 24.89 4.4 40 67 -1.1 30
06:15 1014 29.94 843 24.89 5.1 41.3 62 -1.4 29.4
06:20 1014 29.94 843 24.89 5.5 42 62 -1.2 29.8
06:25 1014 29.94 843 24.89 5.7 42.3 60 -1.3 29.6
06:30 1014 29.94 843 24.89 5.9 42.7 60 -1.2 29.8
06:35 1013 29.91 843 24.89 6 42.7 60 -1.3 29.7
06:40 1013 29.91 843 24.89 5.8 42.5 60 -1.2 29.8
06:45 1013 29.91 843 24.89 5.8 42.4 60 -1.3 29.6
06:50 1013 29.91 843 24.89 5.9 42.6 59 -1.5 29.4
06:55 1013 29.91 843 24.89 6.1 43 58 -1.5 29.3
07:00 1013 29.91 843 24.89 6 42.7 59 -1.3 29.6
07:05 1013 29.91 842 24.86 5.9 42.6 59 -1.5 29.4
07:10 1013 29.91 842 24.86 5.9 42.7 60 -1.3 29.7
07:15 1013 29.91 842 24.86 5.9 42.6 59 -1.4 29.4
07:20 1013 29.91 842 24.86 6 42.9 58 -1.5 29.3
07:25 1013 29.91 842 24.86 6.4 43.6 57 -1.5 29.3
07:30 1013 29.91 842 24.86 6.8 44.2 55 -1.5 29.3
07:35 1013 29.91 842 24.86 7.2 45 54 -1.4 29.6
07:40 1013 29.91 843 24.89 7.4 45.3 54 -1.3 29.7
07:45 1013 29.91 843 24.89 7.6 45.7 53 -1.4 29.5
07:50 1013 29.91 843 24.89 7.8 46.1 52 -1.4 29.5
07:55 1013 29.91 842 24.86 8.2 46.7 50 -1.5 29.3
08:00 1013 29.91 843 24.89 8.6 47.4 49 -1.4 29.5
08:05 1013 29.91 843 24.89 8.9 48 48 -1.4 29.5
08:10 1013 29.91 843 24.89 9.1 48.3 49 -1 30.2
08:15 1013 29.91 843 24.89 9.3 48.8 48 -1.2 29.9
08:20 1013 29.91 843 24.89 9.7 49.4 46 -1.4 29.5
08:25 1013 29.91 843 24.89 9.9 49.8 45 -1.4 29.4
08:30 1013 29.91 843 24.89 10.2 50.3 44 -1.6 29.1
08:35 1013 29.91 843 24.89 10.5 50.8 43 -1.5 29.3
08:40 1014 29.94 843 24.89 10.9 51.5 41 -1.7 28.9
08:45 1014 29.94 843 24.89 11.3 52.3 40 -1.7 28.9
08:50 1014 29.94 843 24.89 11.9 53.4 38 -1.8 28.8
08:55 1014 29.94 843 24.89 12.2 54 36 -2.3 27.9
09:00 1014 29.94 843 24.89 12.3 54.1 36 -2.3 27.9
09:05 1014 29.94 843 24.89 12.5 54.5 35 -2.3 27.8
09:10 1014 29.94 843 24.89 12.9 55.2 34 -2.5 27.5
09:15 1014 29.94 843 24.89 12.9 55.2 34 -2.5 27.5
09:20 1014 29.94 843 24.89 12.8 55 34 -2.5 27.5
09:25 1014 29.94 843 24.89 12.8 55.1 34 -2.8 27
09:30 1014 29.94 843 24.89 13.4 56.1 32 -2.7 27.1
09:35 1014 29.94 843 24.89 13.9 57 32 -2.5 27.6
09:40 1014 29.94 843 24.89 13.9 57 32 -2.5 27.5
09:45 1014 29.94 843 24.89 13.7 56.6 32 -2.7 27.2
09:50 1014 29.94 843 24.89 13.4 56.2 32 -3.1 26.5
09:55 1013 29.91 843 24.89 13.3 56 31 -3.4 26
10:00 1013 29.91 843 24.89 13.3 56 31 -3.2 26.2
10:05 1013 29.91 843 24.89 13.7 56.7 31 -3.2 26.3
10:10 1013 29.91 843 24.89 13.9 57 31 -2.8 26.9
10:15 1013 29.91 843 24.89 14.2 57.6 30 -3.2 26.2
10:20 1013 29.91 843 24.89 14.3 57.8 31 -2.6 27.3
10:25 1013 29.91 843 24.89 14.2 57.6 30 -3.1 26.5
10:30 1013 29.91 843 24.89 14.6 58.2 28 -3.5 25.6
10:35 1013 29.91 843 24.89 14.6 58.2 29 -3.2 26.2
10:40 1013 29.91 843 24.89 15.2 59.4 26 -4.1 24.6
10:45 1013 29.91 843 24.89 15.5 59.9 25 -4.5 23.9
10:50 1013 29.91 843 24.89 15.5 59.9 24 -5.1 22.7
10:55 1013 29.91 843 24.89 15.9 60.6 23 -5.3 22.4
11:00 1013 29.91 843 24.89 16.3 61.4 22 -5.3 22.5
11:05 1013 29.91 843 24.89 17.1 62.7 31 -0.2 31.6
11:10 1013 29.91 843 24.89 17.2 63 30 -0.4 31.3
11:15 1013 29.91 843 24.89 17.2 62.9 28 -1.2 29.8
11:20 1013 29.91 843 24.89 16.8 62.2 30 -0.8 30.5
11:25 1013 29.91 843 24.89 16.4 61.5 29 -1.4 29.5
11:30 1013 29.91 843 24.89 16.3 61.4 30 -1.1 30.1
11:35 1013 29.91 842 24.86 16.9 62.4 32 0.4 32.7
11:40 1013 29.91 842 24.86 16.5 61.6 34 0.7 33.2
11:45 1013 29.91 842 24.86 16 60.9 34 0.3 32.5
11:50 1013 29.91 842 24.86 16.4 61.6 36 1.5 34.8
11:55 1013 29.91 842 24.86 16.3 61.4 34 0.6 33.1
12:00 1013 29.91 842 24.86 16.9 62.4 31 -0 32
12:05 1013 29.91 842 24.86 16.7 62.1 32 0.2 32.3
12:10 1013 29.91 842 24.86 16.6 61.8 33 0.3 32.5
12:15 1013 29.91 842 24.86 16.5 61.7 28 -1.8 28.8
12:20 1013 29.91 842 24.86 17.5 63.4 27 -1.6 29
12:25 1013 29.91 842 24.86 18.4 65.1 26 -1.6 29.2
12:30 1013 29.91 842 24.86 18.3 64.9 24 -2.6 27.4
12:35 1013 29.91 842 24.86 18 64.4 22 -4.1 24.6
12:40 1013 29.91 842 24.86 17.3 63.1 23 -4.1 24.6
12:45 1012 29.88 842 24.86 18 64.4 22 -4.1 24.6
12:50 1012 29.88 842 24.86 17.9 64.2 22 -3.9 25.1
12:55 1012 29.88 842 24.86 18 64.5 24 -2.7 27.1
13:00 1012 29.88 841 24.83 18.8 65.8 22 -3.6 25.6
13:05 1012 29.88 841 24.83 17.8 64.1 21 -4.5 23.9
13:10 1012 29.88 841 24.83 16.9 62.4 23 -4.5 23.9
13:15 1012 29.88 841 24.83 16.8 62.2 24 -3.7 25.4
13:20 1012 29.88 841 24.83 17.2 63 21 -5.1 22.9
13:25 1012 29.88 841 24.83 18.3 64.9 20 -4.9 23.2
13:30 1012 29.88 841 24.83 18.8 65.8 20 -4.4 24.1
13:35 1012 29.88 841 24.83 18.3 65 21 -4.5 23.9
13:40 1012 29.88 841 24.83 18.1 64.5 21 -4.6 23.6
13:45 1011 29.85 841 24.83 18.5 65.4 21 -3.9 25
13:50 1011 29.85 841 24.83 18.8 65.8 20 -4.3 24.2
13:55 1011 29.85 841 24.83 19.9 67.8 20 -3.5 25.7
14:00 1011 29.85 841 24.83 19.7 67.4 20 -3.7 25.4
14:05 1011 29.85 840 24.81 19.3 66.7 21 -3.2 26.2
14:10 1011 29.85 840 24.81 19.8 67.6 19 -4.1 24.7
14:15 1011 29.85 840 24.81 20.2 68.3 19 -4.2 24.4
14:20 1011 29.85 840 24.81 20.3 68.5 16 -6 21.2
14:25 1011 29.85 840 24.81 19.1 66.4 18 -5.3 22.4
14:30 1011 29.85 840 24.81 18.5 65.3 20 -4.8 23.3
14:35 1011 29.85 840 24.81 19.6 67.3 19 -4.4 24
14:40 1011 29.85 840 24.81 20.1 68.2 18 -4.9 23.2
14:45 1011 29.85 840 24.81 19.8 67.6 19 -4.5 23.8
14:50 1011 29.85 840 24.81 19.7 67.5 20 -3.5 25.6
14:55 1011 29.85 840 24.81 19.6 67.3 19 -4.6 23.7
15:00 1011 29.85 840 24.81 18.9 66 23 -2.8 27
15:05 1011 29.85 840 24.81 18.4 65.1 23 -2.9 26.9
15:10 1011 29.85 840 24.81 18.4 65.1 24 -2.3 27.8
15:15 1011 29.85 840 24.81 18.8 65.8 22 -3.3 26.1
15:20 1011 29.85 840 24.81 18.9 65.9 22 -3.1 26.4
15:25 1010 29.83 840 24.81 18.9 66.1 23 -2.6 27.3
15:30 1010 29.83 839 24.78 19.2 66.6 22 -3 26.6
15:35 1010 29.83 839 24.78 20.4 68.7 20 -3.5 25.7
15:40 1010 29.83 839 24.78 20.2 68.4 21 -2.9 26.7
15:45 1010 29.83 839 24.78 19.1 66.4 22 -2.7 27.1
15:50 1010 29.83 839 24.78 19 66.1 19 -4.8 23.4
15:55 1010 29.83 839 24.78 18.8 65.9 19 -5.5 22.2
16:00 1010 29.83 839 24.78 18.8 65.9 19 -5.2 22.7
16:05 1010 29.83 839 24.78 19.1 66.3 18 -6.1 21.1
16:10 1010 29.83 839 24.78 18.4 65 21 -4.2 24.4
16:15 1010 29.83 839 24.78 18.2 64.7 19 -6.1 21.1
16:20 1010 29.83 839 24.78 18.3 64.9 19 -5.4 22.2
16:25 1009 29.8 839 24.78 17.9 64.2 20 -5.3 22.5
16:30 1009 29.8 839 24.78 17.9 64.1 20 -5.5 22.1
16:35 1009 29.8 839 24.78 18.2 64.8 19 -5.5 22
16:40 1009 29.8 838 24.75 18.7 65.6 19 -5.5 22.2
16:45 1009 29.8 838 24.75 18.7 65.6 19 -5.2 22.7
16:50 1009 29.8 838 24.75 18.2 64.8 19 -5.7 21.8
16:55 1009 29.8 838 24.75 18.4 65 18 -6.4 20.5
17:00 1009 29.8 838 24.75 18 64.5 17 -7.1 19.3
17:05 1009 29.8 838 24.75 18.1 64.5 18 -6.3 20.7
17:10 1009 29.8 838 24.75 18.1 64.5 18 -6.5 20.2
17:15 1009 29.8 838 24.75 18 64.5 19 -5.8 21.5
17:20 1009 29.8 838 24.75 17.7 63.9 19 -6.4 20.4
17:25 1009 29.8 838 24.75 17.9 64.1 18 -6.5 20.3
17:30 1009 29.8 838 24.75 18 64.3 18 -6.3 20.7
17:35 1009 29.8 838 24.75 17.6 63.7 20 -5.7 21.8
17:40 1009 29.8 838 24.75 17.9 64.2 20 -5.2 22.7
17:45 1009 29.8 838 24.75 17.9 64.1 19 -6.3 20.7
17:50 1009 29.8 838 24.75 17.6 63.7 20 -5.8 21.6
17:55 1009 29.8 838 24.75 17.7 63.9 19 -5.9 21.4
18:00 1009 29.8 838 24.75 17.8 64.1 18 -6.6 20.1
18:05 1009 29.8 838 24.75 17.8 64 19 -5.8 21.6
18:10 1009 29.8 838 24.75 17.6 63.7 20 -5.7 21.8
18:15 1009 29.8 838 24.75 17.4 63.2 20 -5.8 21.6
18:20 1009 29.8 838 24.75 17.3 63.1 20 -5.6 21.9
18:25 1009 29.8 838 24.75 17.1 62.9 20 -5.8 21.6
18:30 1009 29.8 838 24.75 17.1 62.9 20 -5.6 21.9
18:35 1009 29.8 838 24.75 17.1 62.8 21 -5.4 22.3
18:40 1009 29.8 838 24.75 17.1 62.8 19 -6.4 20.5
18:45 1009 29.8 838 24.75 17 62.5 20 -6.4 20.5
18:50 1009 29.8 838 24.75 16.9 62.4 21 -5.8 21.5
18:55 1009 29.8 838 24.75 16.8 62.3 20 -6.4 20.5
19:00 1009 29.8 838 24.75 16.9 62.4 20 -6.1 21.1
19:05 1009 29.8 838 24.75 16.9 62.5 21 -5.6 21.8
19:10 1009 29.8 838 24.75 16.9 62.3 21 -5.5 22.1
19:15 1009 29.8 838 24.75 16.7 62.1 22 -5.2 22.6
19:20 1009 29.8 838 24.75 16.7 62 20 -6 21.1
19:25 1009 29.8 838 24.75 16.5 61.7 21 -5.6 21.9
19:30 1009 29.8 838 24.75 16.5 61.6 21 -5.9 21.3
19:35 1009 29.8 838 24.75 16.4 61.6 19 -7 19.4
19:40 1009 29.8 838 24.75 16.6 61.8 23 -4.5 23.8
19:45 1009 29.8 838 24.75 16.4 61.5 21 -6.2 20.8
19:50 1009 29.8 838 24.75 16.2 61.2 22 -5.2 22.6
19:55 1009 29.8 838 24.75 16.1 61 21 -6 21.2
20:00 1009 29.8 838 24.75 15.9 60.5 22 -5.6 21.9
20:05 1009 29.8 838 24.75 15.9 60.5 22 -5.5 22.1
20:10 1009 29.8 838 24.75 15.7 60.2 22 -5.9 21.3
20:15 1009 29.8 838 24.75 15 59 29 -2.6 27.2
20:20 1009 29.8 838 24.75 14 57.1 37 -0.3 31.5
20:25 1009 29.8 838 24.75 12.8 55 45 1.1 34
20:30 1009 29.8 838 24.75 11.8 53.3 48 1.3 34.3
20:35 1009 29.8 838 24.75 11.2 52.2 50 1.3 34.3
20:40 1009 29.8 838 24.75 10.9 51.6 52 1.3 34.4
20:45 1009 29.8 838 24.75 10.7 51.3 52 1.3 34.4
20:50 1009 29.8 838 24.75 10.6 51 53 1.4 34.4
20:55 1009 29.8 838 24.75 10.3 50.6 54 1.3 34.4
21:00 1009 29.8 838 24.75 10.3 50.5 54 1.3 34.3
21:05 1009 29.8 838 24.75 10.2 50.4 54 1.4 34.6
21:10 1009 29.8 838 24.75 9.7 49.5 56 1.4 34.5
21:15 1009 29.8 838 24.75 9.2 48.6 58 1.5 34.7
21:20 1009 29.8 838 24.75 8.9 47.9 59 1.3 34.4
21:25 1009 29.8 838 24.75 8.9 48.1 59 1.3 34.3
21:30 1009 29.8 838 24.75 8.9 47.9 59 1.3 34.3
21:35 1009 29.8 838 24.75 8.6 47.5 59 1.1 33.9
21:40 1009 29.8 838 24.75 8.7 47.7 57 0.8 33.5
21:45 1009 29.8 838 24.75 9.1 48.3 57 1.1 34
21:50 1009 29.8 838 24.75 8.9 48 56 0.7 33.2
21:55 1008 29.77 838 24.75 8.7 47.7 58 0.8 33.5
22:00 1008 29.77 838 24.75 8.3 46.9 53 -0.6 30.8
22:05 1008 29.77 838 24.75 9 48.1 53 -0.1 31.8
22:10 1008 29.77 838 24.75 8.7 47.6 56 0.4 32.7
22:15 1008 29.77 838 24.75 8 46.4 60 0.8 33.5
22:20 1008 29.77 838 24.75 7.6 45.7 56 -0.6 30.9
22:25 1008 29.77 838 24.75 7.7 45.8 52 -1.6 29
22:30 1008 29.77 838 24.75 8.1 46.5 49 -1.9 28.6
22:35 1008 29.77 838 24.75 8.9 48 46 -2.1 28.2
22:40 1008 29.77 838 24.75 9.2 48.6 46 -1.7 29
22:45 1008 29.77 838 24.75 9.3 48.8 47 -1.5 29.4
22:50 1008 29.77 838 24.75 9.3 48.8 50 -0.6 31
22:55 1008 29.77 837 24.72 9.3 48.8 51 -0.3 31.5
23:00 1008 29.77 837 24.72 9.4 48.8 52 -0.1 31.9
23:05 1008 29.77 837 24.72 9.2 48.5 52 -0.1 31.9
23:10 1008 29.77 837 24.72 9 48.3 54 0.1 32.2
23:15 1008 29.77 838 24.75 8.7 47.7 55 0.2 32.3
23:20 1009 29.8 838 24.75 8.5 47.4 56 0.3 32.6
23:25 1008 29.77 838 24.75 8.5 47.2 59 0.9 33.6
23:30 1008 29.77 837 24.72 8.2 46.8 61 1.1 34
23:35 1008 29.77 837 24.72 8 46.3 64 1.5 34.8
23:40 1008 29.77 837 24.72 7.8 46.1 65 1.6 34.9
23:45 1008 29.77 837 24.72 7.8 46 65 1.7 35
23:50 1008 29.77 837 24.72 7.8 46 66 1.9 35.3
23:55 1008 29.77 837 24.72 7.7 45.8 66 1.9 35.3
24:00 1008 29.77 837 24.72 7.6 45.7 67 1.9 35.5